createdAt,value
2022-10-15T00:01:53.727Z,107.57
2022-10-15T00:04:22.712Z,105.57
2022-10-15T00:06:51.843Z,104.15
2022-10-15T00:09:20.772Z,109.28
2022-10-15T00:11:49.955Z,105.72
2022-10-15T00:14:19.339Z,100.07
2022-10-15T00:16:48.564Z,100.20
2022-10-15T00:19:17.453Z,98.70
2022-10-15T00:21:46.813Z,96.78
2022-10-15T00:24:15.757Z,96.07
2022-10-15T00:26:45.006Z,96.05
2022-10-15T00:29:14.300Z,94.07
2022-10-15T00:31:43.696Z,93.63
2022-10-15T00:34:14.512Z,95.35
2022-10-15T00:36:43.727Z,95.13
2022-10-15T00:39:12.656Z,97.15
2022-10-15T00:41:46.130Z,99.47
2022-10-15T00:44:27.596Z,102.38
2022-10-15T00:47:18.864Z,101.55
2022-10-15T00:50:02.805Z,102.07
2022-10-15T00:52:59.379Z,103.43
2022-10-15T00:55:35.060Z,107.72
2022-10-15T00:58:18.004Z,112.50
2022-10-15T01:00:47.381Z,114.85
2022-10-15T01:03:18.990Z,114.70
2022-10-15T01:08:23.008Z,115.20
2022-10-15T01:11:03.095Z,126.32
2022-10-15T01:14:02.891Z,122.65
2022-10-15T01:17:10.330Z,122.70
2022-10-15T01:20:05.660Z,132.00
2022-10-15T01:22:48.997Z,133.10
2022-10-15T01:25:39.873Z,131.77
2022-10-15T01:28:45.120Z,121.33
2022-10-15T01:31:38.017Z,120.20
2022-10-15T01:37:10.636Z,105.15
2022-10-15T01:39:49.498Z,107.93
2022-10-15T01:42:28.233Z,103.57
2022-10-15T01:45:08.320Z,88.18
2022-10-15T01:47:58.485Z,89.13
2022-10-15T01:50:32.938Z,78.65
2022-10-15T01:53:06.398Z,75.93
2022-10-15T01:55:38.707Z,76.85
2022-10-15T01:58:12.256Z,72.45
2022-10-15T02:00:46.215Z,84.18
2022-10-15T02:03:17.230Z,87.43
2022-10-15T02:06:08.087Z,81.20
2022-10-15T02:08:57.151Z,83.93
2022-10-15T02:11:28.137Z,85.18
2022-10-15T02:14:21.137Z,85.30
2022-10-15T02:17:12.728Z,86.07
2022-10-15T02:20:01.759Z,92.60
2022-10-15T02:22:58.023Z,106.97
2022-10-15T02:25:29.779Z,111.93
2022-10-15T02:28:05.085Z,117.05
2022-10-15T02:30:40.153Z,123.63
2022-10-15T02:33:14.534Z,133.00
2022-10-15T02:35:47.543Z,137.82
2022-10-15T02:38:21.525Z,137.35
2022-10-15T02:40:53.158Z,138.70
2022-10-15T02:43:24.358Z,140.15
2022-10-15T02:45:54.424Z,140.25
2022-10-15T02:48:25.137Z,135.05
2022-10-15T02:50:56.808Z,124.57
2022-10-15T02:53:27.985Z,115.60
2022-10-15T02:55:58.985Z,101.65
2022-10-15T02:58:31.025Z,101.82
2022-10-15T03:01:02.221Z,100.63
2022-10-15T03:03:33.783Z,97.88
2022-10-15T03:06:04.585Z,93.55
2022-10-15T03:08:35.335Z,77.78
2022-10-15T03:11:08.052Z,77.55
2022-10-15T03:13:41.556Z,76.57
2022-10-15T03:16:13.733Z,73.32
2022-10-15T03:18:46.629Z,70.68
2022-10-15T03:21:18.710Z,68.70
2022-10-15T03:23:49.515Z,63.80
2022-10-15T03:26:25.437Z,60.30
2022-10-15T03:28:57.161Z,58.38
2022-10-15T03:31:39.128Z,56.72
2022-10-15T03:34:11.260Z,50.45
2022-10-15T03:36:42.237Z,50.33
2022-10-15T03:39:15.277Z,44.22
2022-10-15T03:41:46.253Z,45.28
2022-10-15T03:44:25.029Z,47.33
2022-10-15T03:47:06.406Z,46.03
2022-10-15T03:49:45.755Z,46.28
2022-10-15T03:52:16.770Z,39.85
2022-10-15T03:54:48.470Z,36.13
2022-10-15T03:57:22.613Z,40.13
2022-10-15T04:00:02.507Z,38.38
2022-10-15T04:02:42.184Z,38.42
2022-10-15T04:05:25.179Z,38.25
2022-10-15T04:08:01.618Z,39.15
2022-10-15T04:10:35.336Z,37.63
2022-10-15T04:13:05.965Z,33.85
2022-10-15T04:15:41.197Z,40.40
2022-10-15T04:18:15.267Z,40.92
2022-10-15T04:20:46.716Z,40.43
2022-10-15T04:23:22.649Z,43.40
2022-10-15T04:26:11.165Z,38.83
2022-10-15T04:28:41.575Z,39.67
2022-10-15T04:31:11.851Z,28.20
2022-10-15T04:33:41.887Z,31.75
2022-10-15T04:36:15.071Z,33.60
2022-10-15T04:39:06.917Z,31.98
2022-10-15T04:41:41.969Z,31.50
2022-10-15T04:44:14.891Z,31.30
2022-10-15T04:46:50.241Z,27.52
2022-10-15T04:49:30.277Z,30.13
2022-10-15T04:52:00.498Z,28.90
2022-10-15T04:54:38.858Z,31.73
2022-10-15T04:57:08.826Z,31.63
2022-10-15T04:59:37.812Z,34.97
2022-10-15T05:02:25.178Z,32.85
2022-10-15T05:05:11.010Z,31.92
2022-10-15T05:07:50.146Z,31.73
2022-10-15T05:10:19.301Z,28.50
2022-10-15T05:12:50.404Z,26.02
2022-10-15T05:15:29.766Z,27.73
2022-10-15T05:17:59.111Z,33.75
2022-10-15T05:20:36.705Z,32.58
2022-10-15T05:23:07.270Z,28.83
2022-10-15T05:25:37.801Z,35.43
2022-10-15T05:28:07.432Z,35.80
2022-10-15T05:30:36.783Z,31.73
2022-10-15T05:33:06.509Z,34.15
2022-10-15T05:35:35.450Z,33.17
2022-10-15T05:38:06.819Z,34.30
2022-10-15T05:40:36.051Z,38.15
2022-10-15T05:43:08.218Z,31.00
2022-10-15T05:45:37.432Z,30.55
2022-10-15T05:48:08.524Z,32.53
2022-10-15T05:50:38.316Z,34.50
2022-10-15T05:53:11.301Z,25.95
2022-10-15T05:55:44.188Z,30.33
2022-10-15T05:58:13.576Z,29.85
2022-10-15T06:00:42.537Z,30.70
2022-10-15T06:03:15.940Z,31.00
2022-10-15T06:05:45.089Z,31.02
2022-10-15T06:08:14.531Z,32.60
2022-10-15T06:10:43.921Z,30.48
2022-10-15T06:13:13.738Z,30.85
2022-10-15T06:15:46.705Z,27.10
2022-10-15T06:18:18.993Z,22.63
2022-10-15T06:20:54.194Z,24.25
2022-10-15T06:23:25.490Z,25.98
2022-10-15T06:25:54.727Z,25.13
2022-10-15T06:28:24.273Z,26.00
2022-10-15T06:30:53.820Z,22.50
2022-10-15T06:33:22.764Z,17.85
2022-10-15T06:35:51.899Z,17.45
2022-10-15T06:38:20.741Z,19.40
2022-10-15T06:40:49.940Z,20.00
2022-10-15T06:43:18.911Z,18.40
2022-10-15T06:45:48.093Z,16.00
2022-10-15T06:48:19.110Z,13.60
2022-10-15T06:50:48.466Z,13.52
2022-10-15T06:53:17.812Z,13.30
2022-10-15T06:55:47.298Z,13.63
2022-10-15T06:58:16.119Z,12.18
2022-10-15T07:00:45.272Z,15.63
2022-10-15T07:03:14.335Z,17.42
2022-10-15T07:05:43.655Z,14.85
2022-10-15T07:08:16.852Z,20.10
2022-10-15T07:10:49.141Z,16.42
2022-10-15T07:13:18.392Z,15.13
2022-10-15T07:15:48.284Z,15.05
2022-10-15T07:18:18.111Z,14.43
2022-10-15T07:20:47.511Z,12.82
2022-10-15T07:23:16.868Z,10.40
2022-10-15T07:25:45.950Z,10.77
2022-10-15T07:28:15.199Z,10.00
2022-10-15T07:30:44.137Z,10.85
2022-10-15T07:33:13.392Z,11.27
2022-10-15T07:35:52.460Z,11.23
2022-10-15T07:38:21.846Z,11.50
2022-10-15T07:40:50.737Z,13.57
2022-10-15T07:43:19.986Z,14.73
2022-10-15T07:45:50.629Z,14.48
2022-10-15T07:48:19.968Z,14.95
2022-10-15T07:50:48.882Z,13.30
2022-10-15T07:53:20.529Z,11.60
2022-10-15T07:55:59.789Z,14.43
2022-10-15T07:58:35.648Z,11.43
2022-10-15T08:01:05.766Z,11.05
2022-10-15T08:03:37.053Z,11.40
2022-10-15T08:06:08.432Z,11.10
2022-10-15T08:08:38.793Z,9.60
2022-10-15T08:11:09.919Z,12.25
2022-10-15T08:13:42.497Z,14.13
2022-10-15T08:16:13.572Z,17.67
2022-10-15T08:18:49.083Z,12.40
2022-10-15T08:21:18.305Z,11.25
2022-10-15T08:23:47.313Z,13.45
2022-10-15T08:26:16.594Z,12.48
2022-10-15T08:28:45.769Z,11.68
2022-10-15T08:31:15.787Z,9.55
2022-10-15T08:33:47.073Z,10.30
2022-10-15T08:36:17.187Z,14.13
2022-10-15T08:38:46.736Z,12.55
2022-10-15T08:41:39.246Z,12.30
2022-10-15T08:44:15.481Z,11.30
2022-10-15T08:46:50.540Z,13.25
2022-10-15T08:49:36.405Z,12.38
2022-10-15T08:52:17.232Z,14.05
2022-10-15T08:54:46.403Z,14.60
2022-10-15T08:57:47.409Z,11.38
2022-10-15T09:00:37.241Z,15.75
2022-10-15T09:03:27.259Z,11.38
2022-10-15T09:06:05.049Z,13.20
2022-10-15T09:09:04.943Z,10.85
2022-10-15T09:11:54.899Z,12.40
2022-10-15T09:14:34.802Z,11.60
2022-10-15T09:17:09.233Z,12.68
2022-10-15T09:19:39.609Z,14.02
2022-10-15T09:22:16.230Z,15.30
2022-10-15T09:24:47.354Z,12.40
2022-10-15T09:27:29.965Z,15.98
2022-10-15T09:30:24.470Z,14.00
2022-10-15T09:33:01.757Z,14.18
2022-10-15T09:35:38.536Z,10.63
2022-10-15T09:38:28.612Z,12.55
2022-10-15T09:41:20.678Z,12.93
2022-10-15T09:43:52.868Z,15.63
2022-10-15T09:46:24.267Z,14.48
2022-10-15T09:49:10.535Z,16.67
2022-10-15T09:51:56.474Z,14.13
2022-10-15T09:54:26.720Z,16.35
2022-10-15T09:56:58.253Z,14.75
2022-10-15T09:59:28.226Z,15.98
2022-10-15T10:02:04.905Z,13.88
2022-10-15T10:04:38.079Z,13.90
2022-10-15T10:07:09.425Z,14.80
2022-10-15T10:09:54.931Z,15.10
2022-10-15T10:12:29.525Z,15.48
2022-10-15T10:15:02.809Z,15.27
2022-10-15T10:17:35.122Z,17.58
2022-10-15T10:20:16.903Z,21.67
2022-10-15T10:22:56.012Z,15.48
2022-10-15T10:25:27.949Z,13.68
2022-10-15T10:28:15.459Z,14.20
2022-10-15T10:31:04.579Z,16.50
2022-10-15T10:33:51.724Z,12.63
2022-10-15T10:36:42.030Z,13.48
2022-10-15T10:39:16.492Z,12.68
2022-10-15T10:41:59.654Z,13.10
2022-10-15T10:44:40.417Z,16.52
2022-10-15T10:47:16.684Z,14.60
2022-10-15T10:49:56.884Z,11.52
2022-10-15T10:52:26.077Z,13.63
2022-10-15T10:55:15.282Z,12.50
2022-10-15T10:57:46.701Z,13.60
2022-10-15T11:00:25.312Z,12.00
2022-10-15T11:02:55.249Z,11.68
2022-10-15T11:05:29.978Z,11.85
2022-10-15T11:08:17.564Z,13.68
2022-10-15T11:10:54.200Z,13.70
2022-10-15T11:13:34.112Z,14.10
2022-10-15T11:16:11.209Z,13.15
2022-10-15T11:19:18.902Z,12.27
2022-10-15T11:22:24.241Z,15.65
2022-10-15T11:25:22.324Z,12.07
2022-10-15T11:28:10.466Z,13.52
2022-10-15T11:30:42.723Z,13.27
2022-10-15T11:33:23.744Z,13.60
2022-10-15T11:36:25.116Z,19.75
2022-10-15T11:39:15.985Z,25.75
2022-10-15T11:41:59.711Z,23.15
2022-10-15T11:44:51.251Z,21.23
2022-10-15T11:47:41.401Z,16.83
2022-10-15T11:50:25.188Z,16.92
2022-10-15T11:53:14.670Z,17.73
2022-10-15T11:56:06.603Z,16.05
2022-10-15T11:58:44.875Z,15.67
2022-10-15T12:01:20.956Z,14.65
2022-10-15T12:04:05.270Z,14.75
2022-10-15T12:06:42.361Z,15.68
2022-10-15T12:09:16.926Z,14.27
2022-10-15T12:12:06.884Z,14.23
2022-10-15T12:14:52.690Z,15.43
2022-10-15T12:17:44.960Z,14.88
2022-10-15T12:20:17.112Z,15.30
2022-10-15T12:22:49.316Z,16.52
2022-10-15T12:25:54.960Z,16.92
2022-10-15T12:29:03.186Z,16.80
2022-10-15T12:31:54.598Z,17.40
2022-10-15T12:34:42.468Z,18.27
2022-10-15T12:37:20.438Z,18.33
2022-10-15T12:40:00.878Z,17.90
2022-10-15T12:42:34.266Z,16.40
2022-10-15T12:45:10.051Z,18.35
2022-10-15T12:47:57.224Z,18.70
2022-10-15T12:50:32.223Z,20.08
2022-10-15T12:53:30.895Z,19.23
2022-10-15T12:56:12.221Z,18.50
2022-10-15T12:58:45.277Z,19.35
2022-10-15T13:01:17.446Z,18.13
2022-10-15T13:03:52.697Z,18.48
2022-10-15T13:06:22.071Z,18.15
2022-10-15T13:09:17.921Z,19.00
2022-10-15T13:12:01.481Z,18.70
2022-10-15T13:14:37.107Z,20.63
2022-10-15T13:17:21.275Z,20.95
2022-10-15T13:20:28.004Z,23.85
2022-10-15T13:23:28.980Z,23.42
2022-10-15T13:26:13.910Z,21.10
2022-10-15T13:28:44.861Z,23.08
2022-10-15T13:31:30.343Z,22.23
2022-10-15T13:34:05.878Z,26.90
2022-10-15T13:36:36.492Z,26.05
2022-10-15T13:39:09.182Z,25.52
2022-10-15T13:41:43.098Z,25.15
2022-10-15T13:44:24.020Z,26.33
2022-10-15T13:46:53.208Z,24.50
2022-10-15T13:49:23.190Z,25.02
2022-10-15T13:51:56.410Z,25.08
2022-10-15T13:54:30.169Z,23.63
2022-10-15T13:57:03.029Z,25.33
2022-10-15T13:59:33.431Z,27.85
2022-10-15T14:02:05.325Z,28.83
2022-10-15T14:04:35.281Z,31.73
2022-10-15T14:07:25.208Z,34.78
2022-10-15T14:09:54.792Z,37.45
2022-10-15T14:12:24.721Z,43.38
2022-10-15T14:14:54.012Z,47.80
2022-10-15T14:17:27.192Z,48.83
2022-10-15T14:20:27.314Z,52.20
2022-10-15T14:22:56.620Z,50.50
2022-10-15T14:25:27.119Z,63.72
2022-10-15T14:27:56.931Z,58.72
2022-10-15T14:30:33.116Z,57.83
2022-10-15T14:33:03.325Z,59.50
2022-10-15T14:35:39.611Z,56.15
2022-10-15T14:38:11.693Z,57.40
2022-10-15T14:40:40.967Z,57.75
2022-10-15T14:43:18.731Z,54.47
2022-10-15T14:45:54.001Z,52.58
2022-10-15T14:48:35.477Z,52.53
2022-10-15T14:51:08.346Z,53.17
2022-10-15T14:53:40.515Z,51.33
2022-10-15T14:56:20.508Z,45.75
2022-10-15T14:58:53.399Z,47.05
2022-10-15T15:01:22.861Z,44.80
2022-10-15T15:03:54.706Z,49.58
2022-10-15T15:06:24.110Z,47.63
2022-10-15T15:08:53.163Z,48.53
2022-10-15T15:11:26.910Z,51.13
2022-10-15T15:13:56.574Z,49.88
2022-10-15T15:16:25.407Z,54.25
2022-10-15T15:18:54.528Z,60.40
2022-10-15T15:21:25.422Z,50.00
2022-10-15T15:23:54.648Z,54.60
2022-10-15T15:26:24.716Z,54.78
2022-10-15T15:28:54.197Z,55.97
2022-10-15T15:31:23.060Z,55.70
2022-10-15T15:33:52.325Z,57.88
2022-10-15T15:36:23.697Z,54.15
2022-10-15T15:38:54.520Z,55.03
2022-10-15T15:41:25.894Z,53.05
2022-10-15T15:43:57.934Z,51.00
2022-10-15T15:46:27.368Z,50.38
2022-10-15T15:48:57.956Z,50.47
2022-10-15T15:51:33.060Z,48.30
2022-10-15T15:54:05.552Z,50.00
2022-10-15T15:56:36.126Z,48.03
2022-10-15T15:59:05.260Z,48.33
2022-10-15T16:01:34.396Z,45.45
2022-10-15T16:04:03.632Z,43.95
2022-10-15T16:06:32.594Z,42.33
2022-10-15T16:09:01.838Z,39.63
2022-10-15T16:11:31.042Z,39.53
2022-10-15T16:14:00.716Z,40.60
2022-10-15T16:16:29.576Z,42.53
2022-10-15T16:18:58.871Z,44.53
2022-10-15T16:21:28.651Z,42.63
2022-10-15T16:23:57.821Z,42.30
2022-10-15T16:26:27.655Z,44.72
2022-10-15T16:28:57.645Z,39.33
2022-10-15T16:31:30.533Z,40.25
2022-10-15T16:34:00.256Z,40.95
2022-10-15T16:36:29.461Z,41.55
2022-10-15T16:38:58.528Z,42.35
2022-10-15T16:41:27.897Z,41.75
2022-10-15T16:43:56.896Z,41.20
2022-10-15T16:46:26.038Z,41.10
2022-10-15T16:48:57.256Z,40.72
2022-10-15T16:51:27.014Z,40.70
2022-10-15T16:53:56.199Z,42.08
2022-10-15T16:56:27.976Z,40.28
2022-10-15T16:58:58.270Z,38.38
2022-10-15T17:01:30.492Z,43.88
2022-10-15T17:04:01.043Z,39.30
2022-10-15T17:06:32.216Z,41.50
2022-10-15T17:09:05.115Z,40.75
2022-10-15T17:11:40.389Z,42.80
2022-10-15T17:14:15.343Z,41.67
2022-10-15T17:16:53.179Z,40.15
2022-10-15T17:19:30.245Z,40.65
2022-10-15T17:22:02.626Z,42.47
2022-10-15T17:24:31.533Z,42.80
2022-10-15T17:27:00.713Z,40.92
2022-10-15T17:29:33.351Z,41.17
2022-10-15T17:32:03.943Z,42.63
2022-10-15T17:34:33.267Z,40.67
2022-10-15T17:37:03.042Z,40.70
2022-10-15T17:39:32.613Z,41.05
2022-10-15T17:42:01.618Z,39.80
2022-10-15T17:44:30.963Z,39.47
2022-10-15T17:46:59.863Z,38.75
2022-10-15T17:49:30.128Z,40.65
2022-10-15T17:51:59.281Z,38.67
2022-10-15T17:54:28.151Z,39.03
2022-10-15T17:56:57.548Z,36.33
2022-10-15T17:59:26.438Z,37.15
2022-10-15T18:01:59.972Z,36.65
2022-10-15T18:04:32.553Z,36.15
2022-10-15T18:07:01.647Z,35.55
2022-10-15T18:09:30.494Z,36.90
2022-10-15T18:12:01.579Z,36.58
2022-10-15T18:14:32.932Z,33.97
2022-10-15T18:17:02.189Z,35.20
2022-10-15T18:19:31.362Z,37.72
2022-10-15T18:22:00.579Z,37.88
2022-10-15T18:24:29.649Z,35.72
2022-10-15T18:27:01.031Z,34.37
2022-10-15T18:29:30.178Z,35.92
2022-10-15T18:31:59.080Z,37.08
2022-10-15T18:34:31.427Z,37.63
2022-10-15T18:37:01.313Z,37.58
2022-10-15T18:39:30.398Z,38.70
2022-10-15T18:41:59.523Z,37.65
2022-10-15T18:44:30.261Z,37.42
2022-10-15T18:46:59.455Z,36.25
2022-10-15T18:49:31.177Z,37.60
2022-10-15T18:52:06.465Z,38.20
2022-10-15T18:54:45.227Z,42.17
2022-10-15T18:57:14.345Z,40.30
2022-10-15T18:59:43.504Z,37.63
2022-10-15T19:02:12.398Z,41.10
2022-10-15T19:04:41.806Z,41.65
2022-10-15T19:07:10.914Z,44.13
2022-10-15T19:09:39.983Z,45.53
2022-10-15T19:12:09.530Z,47.42
2022-10-15T19:14:38.684Z,55.67
2022-10-15T19:17:08.842Z,47.95
2022-10-15T19:19:39.797Z,44.47
2022-10-15T19:22:08.953Z,40.85
2022-10-15T19:24:37.938Z,42.22
2022-10-15T19:29:36.719Z,39.35
2022-10-15T19:32:06.103Z,40.22
2022-10-15T19:34:36.545Z,38.20
2022-10-15T19:37:05.851Z,38.28
2022-10-15T19:39:38.036Z,37.85
2022-10-15T19:42:09.748Z,37.45
2022-10-15T19:44:39.066Z,41.17
2022-10-15T19:47:08.077Z,41.08
2022-10-15T19:49:37.238Z,41.15
2022-10-15T19:52:06.356Z,43.13
2022-10-15T19:54:38.702Z,44.78
2022-10-15T19:57:07.887Z,46.22
2022-10-15T19:59:39.823Z,43.05
2022-10-15T20:02:13.310Z,45.25
2022-10-15T20:04:42.427Z,45.13
2022-10-15T20:07:11.385Z,43.78
2022-10-15T20:09:43.456Z,45.92
2022-10-15T20:12:15.332Z,42.55
2022-10-15T20:14:44.605Z,46.15
2022-10-15T20:17:13.606Z,47.15
2022-10-15T20:19:42.890Z,43.20
2022-10-15T20:22:11.990Z,43.25
2022-10-15T20:24:41.407Z,42.78
2022-10-15T20:27:10.301Z,45.50
2022-10-15T20:29:39.646Z,43.42
2022-10-15T20:32:23.079Z,42.58
2022-10-15T20:34:59.432Z,43.13
2022-10-15T20:37:28.331Z,41.65
2022-10-15T20:42:31.402Z,43.58
2022-10-15T20:45:00.392Z,40.95
2022-10-15T20:47:29.393Z,40.83
2022-10-15T20:49:58.509Z,39.85
2022-10-15T20:52:27.973Z,40.45
2022-10-15T20:54:57.164Z,40.65
2022-10-15T20:57:26.512Z,41.30
2022-10-15T20:59:55.419Z,42.15
2022-10-15T21:02:24.887Z,42.20
2022-10-15T21:04:54.566Z,41.95
2022-10-15T21:07:25.678Z,44.05
2022-10-15T21:09:55.101Z,43.88
2022-10-15T21:12:24.233Z,44.78
2022-10-15T21:14:53.829Z,43.78
2022-10-15T21:17:22.885Z,44.60
2022-10-15T21:19:52.948Z,45.30
2022-10-15T21:22:22.473Z,43.78
2022-10-15T21:24:51.454Z,43.05
2022-10-15T21:27:20.549Z,45.00
2022-10-15T21:29:50.467Z,44.72
2022-10-15T21:32:19.598Z,45.10
2022-10-15T21:34:48.601Z,44.78
2022-10-15T21:37:17.890Z,45.03
2022-10-15T21:39:46.771Z,46.45
2022-10-15T21:42:16.162Z,46.25
2022-10-15T21:44:47.847Z,43.33
2022-10-15T21:47:17.524Z,42.45
2022-10-15T21:49:46.853Z,41.25
2022-10-15T21:52:16.197Z,42.58
2022-10-15T21:54:45.190Z,40.67
2022-10-15T21:57:14.275Z,43.03
2022-10-15T21:59:43.114Z,47.13
2022-10-15T22:02:12.760Z,44.17
2022-10-15T22:04:41.895Z,45.20
2022-10-15T22:07:12.304Z,43.67
2022-10-15T22:09:41.656Z,45.20
2022-10-15T22:12:10.583Z,47.63
2022-10-15T22:14:39.713Z,47.03
2022-10-15T22:17:08.792Z,43.45
2022-10-15T22:19:37.911Z,47.05
2022-10-15T22:22:06.766Z,46.20
2022-10-15T22:24:36.421Z,48.28
2022-10-15T22:27:05.609Z,47.70
2022-10-15T22:29:35.971Z,50.40
2022-10-15T22:32:05.040Z,47.92
2022-10-15T22:34:35.882Z,50.60
2022-10-15T22:37:05.379Z,46.58
2022-10-15T22:39:34.238Z,48.38
2022-10-15T22:42:03.814Z,47.45
2022-10-15T22:44:32.903Z,46.80
2022-10-15T22:47:02.238Z,52.70
2022-10-15T22:49:31.225Z,48.72
2022-10-15T22:52:00.394Z,50.92
2022-10-15T22:54:29.261Z,50.50
2022-10-15T22:56:58.524Z,50.47
2022-10-15T22:59:27.541Z,48.63
2022-10-15T23:01:56.579Z,49.45
2022-10-15T23:04:25.799Z,50.92
2022-10-15T23:06:55.028Z,49.15
2022-10-15T23:09:23.893Z,51.67
2022-10-15T23:11:53.017Z,50.45
2022-10-15T23:14:22.103Z,53.20
2022-10-15T23:16:51.378Z,51.95
2022-10-15T23:19:22.659Z,51.22
2022-10-15T23:21:54.077Z,53.97
2022-10-15T23:24:26.027Z,51.77
2022-10-15T23:26:55.286Z,53.35
2022-10-15T23:29:26.483Z,57.17
2022-10-15T23:31:56.184Z,53.63
2022-10-15T23:34:27.403Z,55.85
2022-10-15T23:36:56.514Z,52.45
2022-10-15T23:39:27.339Z,54.08
2022-10-15T23:41:57.081Z,56.15
2022-10-15T23:44:26.571Z,55.22
2022-10-15T23:46:56.320Z,55.85
2022-10-15T23:49:25.203Z,56.25
2022-10-15T23:51:54.357Z,54.03
2022-10-15T23:54:23.842Z,53.72
2022-10-15T23:56:53.153Z,53.90
2022-10-15T23:59:22.361Z,56.20
